sensor_id;sensor_type;location;lat;lon;timestamp;P1;durP1;ratioP1;P2;durP2;ratioP2
28958;SDS011;16066;0.000;0.000;2024-01-11T06:00:23;26.87;;;17.00;;
28958;SDS011;16066;0.000;0.000;2024-01-11T06:02:49;23.60;;;16.70;;
28958;SDS011;16066;0.000;0.000;2024-01-11T06:05:14;25.37;;;17.00;;
28958;SDS011;16066;0.000;0.000;2024-01-11T06:07:40;26.30;;;17.17;;
28958;SDS011;16066;0.000;0.000;2024-01-11T06:10:06;26.90;;;16.20;;
28958;SDS011;16066;0.000;0.000;2024-01-11T06:12:33;23.63;;;16.40;;
28958;SDS011;16066;0.000;0.000;2024-01-11T06:15:00;25.87;;;17.23;;
28958;SDS011;16066;0.000;0.000;2024-01-11T06:17:26;25.87;;;16.37;;
28958;SDS011;16066;0.000;0.000;2024-01-11T06:19:51;23.80;;;15.40;;
28958;SDS011;16066;0.000;0.000;2024-01-11T06:22:17;27.33;;;16.67;;
28958;SDS011;16066;0.000;0.000;2024-01-11T06:24:43;23.43;;;15.30;;
28958;SDS011;16066;0.000;0.000;2024-01-11T06:27:08;27.70;;;17.23;;
28958;SDS011;16066;0.000;0.000;2024-01-11T06:29:34;26.80;;;16.57;;
28958;SDS011;16066;0.000;0.000;2024-01-11T06:32:00;24.00;;;16.90;;
28958;SDS011;16066;0.000;0.000;2024-01-11T06:34:25;25.80;;;16.70;;
28958;SDS011;16066;0.000;0.000;2024-01-11T06:36:51;26.67;;;16.63;;
28958;SDS011;16066;0.000;0.000;2024-01-11T06:39:18;24.30;;;16.10;;
28958;SDS011;16066;0.000;0.000;2024-01-11T06:41:44;25.40;;;16.67;;
28958;SDS011;16066;0.000;0.000;2024-01-11T06:44:09;26.60;;;17.27;;
28958;SDS011;16066;0.000;0.000;2024-01-11T06:46:35;27.47;;;18.40;;
28958;SDS011;16066;0.000;0.000;2024-01-11T06:49:01;31.67;;;19.40;;
28958;SDS011;16066;0.000;0.000;2024-01-11T06:51:27;26.00;;;16.47;;
28958;SDS011;16066;0.000;0.000;2024-01-11T06:53:52;23.00;;;16.70;;
28958;SDS011;16066;0.000;0.000;2024-01-11T06:56:18;29.50;;;18.60;;
28958;SDS011;16066;0.000;0.000;2024-01-11T06:58:45;27.47;;;16.70;;
28958;SDS011;16066;0.000;0.000;2024-01-11T07:01:11;24.90;;;15.63;;
28958;SDS011;16066;0.000;0.000;2024-01-11T07:03:38;28.37;;;18.40;;
28958;SDS011;16066;0.000;0.000;2024-01-11T07:06:03;26.10;;;16.03;;
28958;SDS011;16066;0.000;0.000;2024-01-11T07:08:30;25.00;;;15.60;;
28958;SDS011;16066;0.000;0.000;2024-01-11T07:10:56;25.13;;;15.40;;
28958;SDS011;16066;0.000;0.000;2024-01-11T07:13:22;24.10;;;16.03;;
28958;SDS011;16066;0.000;0.000;2024-01-11T07:15:48;22.57;;;15.07;;
28958;SDS011;16066;0.000;0.000;2024-01-11T07:18:13;18.43;;;12.13;;
28958;SDS011;16066;0.000;0.000;2024-01-11T07:20:39;20.30;;;14.50;;
28958;SDS011;16066;0.000;0.000;2024-01-11T07:23:05;24.33;;;16.10;;
28958;SDS011;16066;0.000;0.000;2024-01-11T07:25:31;23.80;;;16.50;;
28958;SDS011;16066;0.000;0.000;2024-01-11T07:27:57;24.77;;;15.33;;
28958;SDS011;16066;0.000;0.000;2024-01-11T07:30:23;33.13;;;16.60;;
28958;SDS011;16066;0.000;0.000;2024-01-11T07:32:49;26.03;;;15.40;;
28958;SDS011;16066;0.000;0.000;2024-01-11T07:35:14;22.90;;;15.43;;
28958;SDS011;16066;0.000;0.000;2024-01-11T07:37:40;26.70;;;17.70;;
28958;SDS011;16066;0.000;0.000;2024-01-11T07:40:05;22.90;;;16.37;;
28958;SDS011;16066;0.000;0.000;2024-01-11T07:42:36;24.53;;;15.50;;
28958;SDS011;16066;0.000;0.000;2024-01-11T07:45:03;24.67;;;16.13;;
28958;SDS011;16066;0.000;0.000;2024-01-11T07:47:30;22.43;;;16.20;;
28958;SDS011;16066;0.000;0.000;2024-01-11T07:49:56;23.77;;;16.27;;
28958;SDS011;16066;0.000;0.000;2024-01-11T07:52:21;24.77;;;15.40;;
28958;SDS011;16066;0.000;0.000;2024-01-11T07:54:47;23.03;;;15.60;;
28958;SDS011;16066;0.000;0.000;2024-01-11T07:57:12;26.60;;;15.43;;
28958;SDS011;16066;0.000;0.000;2024-01-11T07:59:38;22.73;;;15.00;;
28958;SDS011;16066;0.000;0.000;2024-01-11T08:02:04;24.60;;;15.80;;
28958;SDS011;16066;0.000;0.000;2024-01-11T08:04:30;23.67;;;14.93;;
28958;SDS011;16066;0.000;0.000;2024-01-11T08:06:56;21.90;;;13.70;;
28958;SDS011;16066;0.000;0.000;2024-01-11T08:09:24;21.00;;;14.53;;
28958;SDS011;16066;0.000;0.000;2024-01-11T08:11:53;29.33;;;14.07;;
28958;SDS011;16066;0.000;0.000;2024-01-11T08:14:19;21.17;;;14.63;;
28958;SDS011;16066;0.000;0.000;2024-01-11T08:16:45;18.70;;;13.13;;
28958;SDS011;16066;0.000;0.000;2024-01-11T08:19:11;21.23;;;13.80;;
28958;SDS011;16066;0.000;0.000;2024-01-11T08:21:38;23.50;;;13.83;;
28958;SDS011;16066;0.000;0.000;2024-01-11T08:24:04;19.80;;;13.73;;
28958;SDS011;16066;0.000;0.000;2024-01-11T08:26:30;21.10;;;13.77;;
28958;SDS011;16066;0.000;0.000;2024-01-11T08:28:56;20.93;;;13.93;;
28958;SDS011;16066;0.000;0.000;2024-01-11T08:31:21;20.10;;;13.13;;
28958;SDS011;16066;0.000;0.000;2024-01-11T08:33:47;19.57;;;13.43;;
28958;SDS011;16066;0.000;0.000;2024-01-11T08:36:13;17.70;;;12.43;;
28958;SDS011;16066;0.000;0.000;2024-01-11T08:38:39;16.23;;;11.90;;
28958;SDS011;16066;0.000;0.000;2024-01-11T08:41:05;20.73;;;13.43;;
28958;SDS011;16066;0.000;0.000;2024-01-11T08:43:31;16.60;;;11.60;;
28958;SDS011;16066;0.000;0.000;2024-01-11T08:45:57;19.20;;;12.80;;
28958;SDS011;16066;0.000;0.000;2024-01-11T08:48:23;18.00;;;12.43;;
28958;SDS011;16066;0.000;0.000;2024-01-11T08:50:49;18.40;;;12.50;;
28958;SDS011;16066;0.000;0.000;2024-01-11T08:53:14;19.37;;;12.80;;
28958;SDS011;16066;0.000;0.000;2024-01-11T08:55:41;19.27;;;12.57;;
28958;SDS011;16066;0.000;0.000;2024-01-11T08:58:07;25.03;;;12.70;;
28958;SDS011;16066;0.000;0.000;2024-01-11T09:00:33;17.90;;;12.27;;
28958;SDS011;16066;0.000;0.000;2024-01-11T09:02:58;17.43;;;10.60;;
28958;SDS011;16066;0.000;0.000;2024-01-11T09:05:24;17.83;;;12.50;;
28958;SDS011;16066;0.000;0.000;2024-01-11T09:07:50;19.60;;;11.60;;
28958;SDS011;16066;0.000;0.000;2024-01-11T09:10:15;19.23;;;12.43;;
28958;SDS011;16066;0.000;0.000;2024-01-11T09:12:41;20.87;;;11.77;;
28958;SDS011;16066;0.000;0.000;2024-01-11T09:15:07;17.87;;;12.00;;
28958;SDS011;16066;0.000;0.000;2024-01-11T09:17:32;19.27;;;12.37;;
28958;SDS011;16066;0.000;0.000;2024-01-11T09:19:58;14.00;;;10.67;;
28958;SDS011;16066;0.000;0.000;2024-01-11T09:22:23;20.10;;;11.40;;
28958;SDS011;16066;0.000;0.000;2024-01-11T09:24:49;16.47;;;11.50;;
28958;SDS011;16066;0.000;0.000;2024-01-11T09:27:15;17.77;;;11.93;;
28958;SDS011;16066;0.000;0.000;2024-01-11T09:29:43;20.37;;;12.10;;
28958;SDS011;16066;0.000;0.000;2024-01-11T09:32:10;16.63;;;11.73;;
28958;SDS011;16066;0.000;0.000;2024-01-11T09:34:35;15.37;;;11.20;;
28958;SDS011;16066;0.000;0.000;2024-01-11T09:37:01;17.77;;;12.23;;
28958;SDS011;16066;0.000;0.000;2024-01-11T09:39:27;17.90;;;11.37;;
28958;SDS011;16066;0.000;0.000;2024-01-11T09:41:57;17.40;;;11.47;;
28958;SDS011;16066;0.000;0.000;2024-01-11T09:44:31;13.80;;;10.27;;
28958;SDS011;16066;0.000;0.000;2024-01-11T09:46:58;16.97;;;11.20;;
28958;SDS011;16066;0.000;0.000;2024-01-11T09:49:25;19.80;;;11.00;;
28958;SDS011;16066;0.000;0.000;2024-01-11T09:51:51;16.57;;;12.17;;
28958;SDS011;16066;0.000;0.000;2024-01-11T09:54:17;16.60;;;10.57;;
28958;SDS011;16066;0.000;0.000;2024-01-11T09:56:46;16.47;;;11.63;;
28958;SDS011;16066;0.000;0.000;2024-01-11T09:59:11;17.00;;;12.10;;
28958;SDS011;16066;0.000;0.000;2024-01-11T10:01:37;17.83;;;12.10;;
28958;SDS011;16066;0.000;0.000;2024-01-11T10:04:03;16.00;;;11.80;;
28958;SDS011;16066;0.000;0.000;2024-01-11T10:06:30;18.33;;;12.03;;
28958;SDS011;16066;0.000;0.000;2024-01-11T10:08:59;18.77;;;12.20;;
28958;SDS011;16066;0.000;0.000;2024-01-11T10:11:24;16.17;;;11.40;;
28958;SDS011;16066;0.000;0.000;2024-01-11T10:13:55;27.70;;;13.30;;
28958;SDS011;16066;0.000;0.000;2024-01-11T10:16:22;18.03;;;12.73;;
28958;SDS011;16066;0.000;0.000;2024-01-11T10:18:47;17.70;;;12.70;;
28958;SDS011;16066;0.000;0.000;2024-01-11T10:21:13;17.10;;;12.47;;
28958;SDS011;16066;0.000;0.000;2024-01-11T10:23:39;20.07;;;12.97;;
28958;SDS011;16066;0.000;0.000;2024-01-11T10:26:04;21.43;;;13.40;;
28958;SDS011;16066;0.000;0.000;2024-01-11T10:28:32;17.40;;;12.60;;
28958;SDS011;16066;0.000;0.000;2024-01-11T10:31:02;14.97;;;12.17;;
28958;SDS011;16066;0.000;0.000;2024-01-11T10:33:34;18.90;;;12.73;;
28958;SDS011;16066;0.000;0.000;2024-01-11T10:36:00;19.97;;;12.90;;
28958;SDS011;16066;0.000;0.000;2024-01-11T10:38:26;18.50;;;11.53;;
28958;SDS011;16066;0.000;0.000;2024-01-11T10:40:55;19.63;;;12.07;;
28958;SDS011;16066;0.000;0.000;2024-01-11T10:43:24;17.20;;;11.60;;
28958;SDS011;16066;0.000;0.000;2024-01-11T10:45:50;18.77;;;13.13;;
28958;SDS011;16066;0.000;0.000;2024-01-11T10:48:19;15.63;;;12.00;;
28958;SDS011;16066;0.000;0.000;2024-01-11T10:50:47;15.97;;;12.07;;
28958;SDS011;16066;0.000;0.000;2024-01-11T10:55:57;16.17;;;12.07;;
28958;SDS011;16066;0.000;0.000;2024-01-11T10:58:24;15.47;;;10.73;;
28958;SDS011;16066;0.000;0.000;2024-01-11T11:00:51;14.33;;;10.10;;
28958;SDS011;16066;0.000;0.000;2024-01-11T11:03:22;15.73;;;12.03;;
28958;SDS011;16066;0.000;0.000;2024-01-11T11:05:50;18.20;;;10.73;;
28958;SDS011;16066;0.000;0.000;2024-01-11T11:08:18;16.80;;;12.13;;
28958;SDS011;16066;0.000;0.000;2024-01-11T11:10:45;17.13;;;12.63;;
28958;SDS011;16066;0.000;0.000;2024-01-11T11:13:14;18.70;;;11.70;;
28958;SDS011;16066;0.000;0.000;2024-01-11T11:15:41;15.57;;;10.97;;
28958;SDS011;16066;0.000;0.000;2024-01-11T11:18:11;16.50;;;10.87;;
28958;SDS011;16066;0.000;0.000;2024-01-11T11:20:38;14.60;;;9.90;;
28958;SDS011;16066;0.000;0.000;2024-01-11T11:23:07;17.53;;;11.23;;
28958;SDS011;16066;0.000;0.000;2024-01-11T11:25:35;16.40;;;12.23;;
28958;SDS011;16066;0.000;0.000;2024-01-11T11:28:01;17.63;;;11.43;;
28958;SDS011;16066;0.000;0.000;2024-01-11T11:30:29;16.93;;;11.60;;
28958;SDS011;16066;0.000;0.000;2024-01-11T11:32:55;15.67;;;11.57;;
28958;SDS011;16066;0.000;0.000;2024-01-11T11:35:24;15.67;;;11.33;;
28958;SDS011;16066;0.000;0.000;2024-01-11T11:37:53;14.77;;;10.63;;
28958;SDS011;16066;0.000;0.000;2024-01-11T11:40:31;15.30;;;10.33;;
28958;SDS011;16066;0.000;0.000;2024-01-11T11:43:00;15.00;;;11.37;;
28958;SDS011;16066;0.000;0.000;2024-01-11T11:45:27;14.40;;;10.30;;
28958;SDS011;16066;0.000;0.000;2024-01-11T11:47:53;15.90;;;10.57;;
28958;SDS011;16066;0.000;0.000;2024-01-11T11:50:21;16.93;;;10.60;;
28958;SDS011;16066;0.000;0.000;2024-01-11T11:52:47;13.27;;;9.90;;
28958;SDS011;16066;0.000;0.000;2024-01-11T11:55:20;14.70;;;10.47;;
28958;SDS011;16066;0.000;0.000;2024-01-11T11:57:50;14.17;;;10.20;;
28958;SDS011;16066;0.000;0.000;2024-01-11T12:00:17;12.23;;;9.27;;
28958;SDS011;16066;0.000;0.000;2024-01-11T12:02:43;17.20;;;10.97;;
28958;SDS011;16066;0.000;0.000;2024-01-11T12:05:11;14.77;;;10.77;;
28958;SDS011;16066;0.000;0.000;2024-01-11T12:07:36;15.53;;;11.13;;
28958;SDS011;16066;0.000;0.000;2024-01-11T12:10:02;16.97;;;11.70;;
28958;SDS011;16066;0.000;0.000;2024-01-11T12:12:29;17.90;;;11.40;;
28958;SDS011;16066;0.000;0.000;2024-01-11T12:14:54;16.30;;;12.10;;
28958;SDS011;16066;0.000;0.000;2024-01-11T12:17:20;15.43;;;11.00;;
28958;SDS011;16066;0.000;0.000;2024-01-11T12:19:46;14.20;;;10.00;;
28958;SDS011;16066;0.000;0.000;2024-01-11T12:22:12;17.20;;;12.60;;
28958;SDS011;16066;0.000;0.000;2024-01-11T12:24:37;15.47;;;11.63;;
28958;SDS011;16066;0.000;0.000;2024-01-11T12:27:03;17.33;;;11.50;;
28958;SDS011;16066;0.000;0.000;2024-01-11T12:29:29;16.73;;;12.17;;
28958;SDS011;16066;0.000;0.000;2024-01-11T12:31:58;14.90;;;11.57;;
28958;SDS011;16066;0.000;0.000;2024-01-11T12:34:23;15.23;;;10.67;;
28958;SDS011;16066;0.000;0.000;2024-01-11T12:36:50;16.37;;;11.30;;
28958;SDS011;16066;0.000;0.000;2024-01-11T12:39:18;16.47;;;11.10;;
28958;SDS011;16066;0.000;0.000;2024-01-11T12:41:44;17.60;;;10.53;;
28958;SDS011;16066;0.000;0.000;2024-01-11T12:44:09;12.97;;;9.83;;
28958;SDS011;16066;0.000;0.000;2024-01-11T12:46:35;16.70;;;11.30;;
28958;SDS011;16066;0.000;0.000;2024-01-11T12:49:00;14.23;;;10.20;;
28958;SDS011;16066;0.000;0.000;2024-01-11T12:51:26;13.30;;;9.77;;
28958;SDS011;16066;0.000;0.000;2024-01-11T12:53:52;12.80;;;9.70;;
28958;SDS011;16066;0.000;0.000;2024-01-11T12:56:18;13.07;;;10.33;;
28958;SDS011;16066;0.000;0.000;2024-01-11T12:58:46;15.07;;;10.47;;
28958;SDS011;16066;0.000;0.000;2024-01-11T13:01:12;13.00;;;9.50;;
28958;SDS011;16066;0.000;0.000;2024-01-11T13:03:39;16.20;;;11.13;;
28958;SDS011;16066;0.000;0.000;2024-01-11T13:06:08;14.93;;;10.03;;
28958;SDS011;16066;0.000;0.000;2024-01-11T13:08:34;13.85;;;10.20;;
28958;SDS011;16066;0.000;0.000;2024-01-11T13:11:02;16.13;;;10.80;;
28958;SDS011;16066;0.000;0.000;2024-01-11T13:13:32;13.60;;;10.73;;
28958;SDS011;16066;0.000;0.000;2024-01-11T13:16:04;13.87;;;10.23;;
28958;SDS011;16066;0.000;0.000;2024-01-11T13:18:36;14.10;;;10.10;;
28958;SDS011;16066;0.000;0.000;2024-01-11T13:21:01;14.70;;;10.50;;
28958;SDS011;16066;0.000;0.000;2024-01-11T13:23:27;13.93;;;10.27;;
28958;SDS011;16066;0.000;0.000;2024-01-11T13:25:53;16.57;;;10.27;;
28958;SDS011;16066;0.000;0.000;2024-01-11T13:28:18;14.37;;;9.90;;
28958;SDS011;16066;0.000;0.000;2024-01-11T13:30:45;17.33;;;11.00;;
28958;SDS011;16066;0.000;0.000;2024-01-11T13:33:11;16.00;;;11.33;;
28958;SDS011;16066;0.000;0.000;2024-01-11T13:35:40;13.83;;;10.43;;
28958;SDS011;16066;0.000;0.000;2024-01-11T13:38:07;14.63;;;11.17;;
28958;SDS011;16066;0.000;0.000;2024-01-11T13:40:33;14.07;;;10.13;;
28958;SDS011;16066;0.000;0.000;2024-01-11T13:42:59;13.10;;;10.17;;
28958;SDS011;16066;0.000;0.000;2024-01-11T13:45:25;14.23;;;10.80;;
28958;SDS011;16066;0.000;0.000;2024-01-11T13:47:51;13.67;;;10.10;;
28958;SDS011;16066;0.000;0.000;2024-01-11T13:50:20;12.93;;;9.97;;
28958;SDS011;16066;0.000;0.000;2024-01-11T13:52:46;12.40;;;9.40;;
28958;SDS011;16066;0.000;0.000;2024-01-11T13:55:12;12.50;;;9.60;;
28958;SDS011;16066;0.000;0.000;2024-01-11T13:57:38;19.40;;;11.13;;
28958;SDS011;16066;0.000;0.000;2024-01-11T14:00:04;14.50;;;10.23;;
28958;SDS011;16066;0.000;0.000;2024-01-11T14:02:30;13.63;;;9.57;;
28958;SDS011;16066;0.000;0.000;2024-01-11T14:04:56;14.77;;;9.87;;
28958;SDS011;16066;0.000;0.000;2024-01-11T14:07:22;13.17;;;10.03;;
28958;SDS011;16066;0.000;0.000;2024-01-11T14:09:48;13.67;;;9.97;;
28958;SDS011;16066;0.000;0.000;2024-01-11T14:12:14;15.80;;;10.70;;
28958;SDS011;16066;0.000;0.000;2024-01-11T14:14:40;13.80;;;10.70;;
28958;SDS011;16066;0.000;0.000;2024-01-11T14:17:06;13.60;;;9.77;;
28958;SDS011;16066;0.000;0.000;2024-01-11T14:19:33;13.77;;;10.10;;
28958;SDS011;16066;0.000;0.000;2024-01-11T14:21:58;13.00;;;9.37;;
28958;SDS011;16066;0.000;0.000;2024-01-11T14:24:24;14.90;;;10.77;;
28958;SDS011;16066;0.000;0.000;2024-01-11T14:26:50;14.23;;;10.73;;
28958;SDS011;16066;0.000;0.000;2024-01-11T14:29:16;17.40;;;11.87;;
28958;SDS011;16066;0.000;0.000;2024-01-11T14:31:41;17.40;;;11.73;;
28958;SDS011;16066;0.000;0.000;2024-01-11T14:34:07;18.27;;;12.37;;
28958;SDS011;16066;0.000;0.000;2024-01-11T14:36:33;14.10;;;11.43;;
28958;SDS011;16066;0.000;0.000;2024-01-11T14:38:58;15.77;;;11.17;;
28958;SDS011;16066;0.000;0.000;2024-01-11T14:41:24;16.27;;;11.40;;
28958;SDS011;16066;0.000;0.000;2024-01-11T14:43:49;14.73;;;11.43;;
28958;SDS011;16066;0.000;0.000;2024-01-11T14:46:15;17.33;;;12.37;;
28958;SDS011;16066;0.000;0.000;2024-01-11T14:48:40;18.13;;;13.23;;
28958;SDS011;16066;0.000;0.000;2024-01-11T14:51:06;17.87;;;11.60;;
28958;SDS011;16066;0.000;0.000;2024-01-11T14:53:32;17.43;;;12.87;;
28958;SDS011;16066;0.000;0.000;2024-01-11T14:55:58;17.87;;;12.53;;
28958;SDS011;16066;0.000;0.000;2024-01-11T14:58:24;15.50;;;11.80;;
28958;SDS011;16066;0.000;0.000;2024-01-11T15:00:49;18.00;;;12.83;;
28958;SDS011;16066;0.000;0.000;2024-01-11T15:03:15;17.50;;;12.17;;
28958;SDS011;16066;0.000;0.000;2024-01-11T15:05:41;21.00;;;13.60;;
28958;SDS011;16066;0.000;0.000;2024-01-11T15:08:07;17.83;;;12.40;;
28958;SDS011;16066;0.000;0.000;2024-01-11T15:10:32;16.50;;;11.90;;
28958;SDS011;16066;0.000;0.000;2024-01-11T15:12:57;18.23;;;12.00;;
28958;SDS011;16066;0.000;0.000;2024-01-11T15:15:23;17.63;;;12.73;;
28958;SDS011;16066;0.000;0.000;2024-01-11T15:17:49;16.20;;;11.50;;
28958;SDS011;16066;0.000;0.000;2024-01-11T15:20:14;18.00;;;13.07;;
28958;SDS011;16066;0.000;0.000;2024-01-11T15:22:40;16.57;;;12.50;;
28958;SDS011;16066;0.000;0.000;2024-01-11T15:25:06;18.90;;;12.90;;
28958;SDS011;16066;0.000;0.000;2024-01-11T15:27:32;20.15;;;14.05;;
28958;SDS011;16066;0.000;0.000;2024-01-11T15:29:57;16.37;;;12.53;;
28958;SDS011;16066;0.000;0.000;2024-01-11T15:32:23;20.65;;;15.20;;
28958;SDS011;16066;0.000;0.000;2024-01-11T15:34:48;19.63;;;14.27;;
28958;SDS011;16066;0.000;0.000;2024-01-11T15:37:14;19.77;;;13.73;;
28958;SDS011;16066;0.000;0.000;2024-01-11T15:39:40;20.00;;;14.53;;
28958;SDS011;16066;0.000;0.000;2024-01-11T15:42:05;21.80;;;14.87;;
28958;SDS011;16066;0.000;0.000;2024-01-11T15:44:31;22.87;;;16.27;;
28958;SDS011;16066;0.000;0.000;2024-01-11T15:46:59;20.63;;;14.27;;
28958;SDS011;16066;0.000;0.000;2024-01-11T15:49:24;22.73;;;15.57;;
28958;SDS011;16066;0.000;0.000;2024-01-11T15:51:50;21.50;;;15.77;;
28958;SDS011;16066;0.000;0.000;2024-01-11T15:54:15;19.27;;;14.03;;
28958;SDS011;16066;0.000;0.000;2024-01-11T15:56:41;24.53;;;15.10;;
28958;SDS011;16066;0.000;0.000;2024-01-11T15:59:06;20.70;;;14.57;;
28958;SDS011;16066;0.000;0.000;2024-01-11T16:01:32;17.40;;;13.43;;
28958;SDS011;16066;0.000;0.000;2024-01-11T16:04:01;24.90;;;15.53;;
28958;SDS011;16066;0.000;0.000;2024-01-11T16:06:29;22.50;;;15.90;;
28958;SDS011;16066;0.000;0.000;2024-01-11T16:08:54;22.13;;;15.53;;
28958;SDS011;16066;0.000;0.000;2024-01-11T16:11:20;63.70;;;15.30;;
28958;SDS011;16066;0.000;0.000;2024-01-11T16:13:46;19.67;;;14.00;;
28958;SDS011;16066;0.000;0.000;2024-01-11T16:16:13;20.17;;;14.47;;
28958;SDS011;16066;0.000;0.000;2024-01-11T16:18:39;18.93;;;13.33;;
28958;SDS011;16066;0.000;0.000;2024-01-11T16:21:04;26.40;;;13.53;;
28958;SDS011;16066;0.000;0.000;2024-01-11T16:23:31;20.67;;;14.20;;
28958;SDS011;16066;0.000;0.000;2024-01-11T16:25:57;16.43;;;11.83;;
28958;SDS011;16066;0.000;0.000;2024-01-11T16:28:23;20.00;;;14.20;;
28958;SDS011;16066;0.000;0.000;2024-01-11T16:30:49;21.00;;;14.57;;
28958;SDS011;16066;0.000;0.000;2024-01-11T16:33:15;20.13;;;14.27;;
28958;SDS011;16066;0.000;0.000;2024-01-11T16:35:40;19.50;;;14.37;;
28958;SDS011;16066;0.000;0.000;2024-01-11T16:38:06;20.20;;;13.63;;
28958;SDS011;16066;0.000;0.000;2024-01-11T16:40:32;20.27;;;14.13;;
28958;SDS011;16066;0.000;0.000;2024-01-11T16:42:58;21.87;;;15.30;;
28958;SDS011;16066;0.000;0.000;2024-01-11T16:45:24;22.10;;;14.60;;
28958;SDS011;16066;0.000;0.000;2024-01-11T16:47:49;21.67;;;14.47;;
28958;SDS011;16066;0.000;0.000;2024-01-11T16:50:15;22.77;;;15.10;;
28958;SDS011;16066;0.000;0.000;2024-01-11T16:52:41;19.57;;;13.63;;
28958;SDS011;16066;0.000;0.000;2024-01-11T16:55:07;28.77;;;15.33;;
28958;SDS011;16066;0.000;0.000;2024-01-11T16:57:33;21.23;;;14.67;;
28958;SDS011;16066;0.000;0.000;2024-01-11T16:59:58;20.83;;;14.73;;
28958;SDS011;16066;0.000;0.000;2024-01-11T17:02:25;20.00;;;15.00;;
28958;SDS011;16066;0.000;0.000;2024-01-11T17:04:53;21.20;;;14.70;;
28958;SDS011;16066;0.000;0.000;2024-01-11T17:07:19;20.90;;;14.63;;
28958;SDS011;16066;0.000;0.000;2024-01-11T17:09:45;20.60;;;14.47;;
28958;SDS011;16066;0.000;0.000;2024-01-11T17:12:10;19.23;;;13.93;;
28958;SDS011;16066;0.000;0.000;2024-01-11T17:14:36;21.83;;;14.37;;
28958;SDS011;16066;0.000;0.000;2024-01-11T17:17:01;20.03;;;13.40;;
28958;SDS011;16066;0.000;0.000;2024-01-11T17:19:29;18.47;;;13.80;;
28958;SDS011;16066;0.000;0.000;2024-01-11T17:21:54;19.47;;;14.20;;
28958;SDS011;16066;0.000;0.000;2024-01-11T17:24:20;19.97;;;14.13;;
28958;SDS011;16066;0.000;0.000;2024-01-11T17:26:45;23.27;;;15.00;;
28958;SDS011;16066;0.000;0.000;2024-01-11T17:29:11;20.70;;;13.90;;
28958;SDS011;16066;0.000;0.000;2024-01-11T17:31:36;19.27;;;14.30;;
28958;SDS011;16066;0.000;0.000;2024-01-11T17:34:08;20.47;;;15.00;;
28958;SDS011;16066;0.000;0.000;2024-01-11T17:36:34;21.50;;;14.77;;
28958;SDS011;16066;0.000;0.000;2024-01-11T17:38:59;25.67;;;17.47;;
28958;SDS011;16066;0.000;0.000;2024-01-11T17:41:25;23.07;;;14.93;;
28958;SDS011;16066;0.000;0.000;2024-01-11T17:43:50;20.47;;;15.93;;
28958;SDS011;16066;0.000;0.000;2024-01-11T17:46:20;22.67;;;15.00;;
28958;SDS011;16066;0.000;0.000;2024-01-11T17:48:47;22.60;;;14.73;;
28958;SDS011;16066;0.000;0.000;2024-01-11T17:51:13;20.73;;;14.53;;
28958;SDS011;16066;0.000;0.000;2024-01-11T17:53:38;20.67;;;14.37;;
28958;SDS011;16066;0.000;0.000;2024-01-11T17:56:04;20.03;;;13.77;;
28958;SDS011;16066;0.000;0.000;2024-01-11T17:58:30;21.17;;;14.90;;
28958;SDS011;16066;0.000;0.000;2024-01-11T18:00:55;20.40;;;14.60;;
28958;SDS011;16066;0.000;0.000;2024-01-11T18:03:23;21.00;;;15.10;;
28958;SDS011;16066;0.000;0.000;2024-01-11T18:05:48;20.60;;;15.13;;
28958;SDS011;16066;0.000;0.000;2024-01-11T18:08:14;19.10;;;14.50;;
28958;SDS011;16066;0.000;0.000;2024-01-11T18:10:39;21.40;;;14.67;;
28958;SDS011;16066;0.000;0.000;2024-01-11T18:13:05;19.20;;;13.83;;
28958;SDS011;16066;0.000;0.000;2024-01-11T18:15:32;19.57;;;13.30;;
28958;SDS011;16066;0.000;0.000;2024-01-11T18:17:57;19.87;;;13.67;;
28958;SDS011;16066;0.000;0.000;2024-01-11T18:20:23;18.03;;;13.17;;
28958;SDS011;16066;0.000;0.000;2024-01-11T18:22:48;18.60;;;13.47;;
28958;SDS011;16066;0.000;0.000;2024-01-11T18:25:16;17.87;;;13.47;;
28958;SDS011;16066;0.000;0.000;2024-01-11T18:27:41;19.33;;;14.30;;
28958;SDS011;16066;0.000;0.000;2024-01-11T18:30:07;15.73;;;13.20;;
28958;SDS011;16066;0.000;0.000;2024-01-11T18:32:33;22.70;;;14.63;;
28958;SDS011;16066;0.000;0.000;2024-01-11T18:34:58;20.23;;;13.80;;
28958;SDS011;16066;0.000;0.000;2024-01-11T18:37:24;19.33;;;13.50;;
28958;SDS011;16066;0.000;0.000;2024-01-11T18:39:51;19.27;;;14.30;;
28958;SDS011;16066;0.000;0.000;2024-01-11T18:42:17;20.70;;;13.57;;
28958;SDS011;16066;0.000;0.000;2024-01-11T18:44:44;18.73;;;13.77;;
28958;SDS011;16066;0.000;0.000;2024-01-11T18:47:10;19.80;;;15.00;;
28958;SDS011;16066;0.000;0.000;2024-01-11T18:49:35;22.00;;;14.37;;
28958;SDS011;16066;0.000;0.000;2024-01-11T18:52:01;19.73;;;14.50;;
28958;SDS011;16066;0.000;0.000;2024-01-11T18:54:26;20.13;;;14.60;;
28958;SDS011;16066;0.000;0.000;2024-01-11T18:56:52;20.93;;;15.13;;
28958;SDS011;16066;0.000;0.000;2024-01-11T18:59:17;20.33;;;14.40;;
28958;SDS011;16066;0.000;0.000;2024-01-11T19:01:46;18.47;;;13.47;;
28958;SDS011;16066;0.000;0.000;2024-01-11T19:04:12;18.30;;;12.47;;
28958;SDS011;16066;0.000;0.000;2024-01-11T19:06:38;21.70;;;14.47;;
28958;SDS011;16066;0.000;0.000;2024-01-11T19:09:04;23.57;;;15.80;;
28958;SDS011;16066;0.000;0.000;2024-01-11T19:11:30;25.57;;;16.80;;
28958;SDS011;16066;0.000;0.000;2024-01-11T19:13:56;30.90;;;19.23;;
28958;SDS011;16066;0.000;0.000;2024-01-11T19:16:22;40.77;;;23.47;;
28958;SDS011;16066;0.000;0.000;2024-01-11T19:18:47;40.70;;;23.50;;
28958;SDS011;16066;0.000;0.000;2024-01-11T19:21:13;47.43;;;25.10;;
28958;SDS011;16066;0.000;0.000;2024-01-11T19:23:39;37.90;;;24.20;;
28958;SDS011;16066;0.000;0.000;2024-01-11T19:26:04;45.90;;;26.53;;
28958;SDS011;16066;0.000;0.000;2024-01-11T19:28:30;45.87;;;25.77;;
28958;SDS011;16066;0.000;0.000;2024-01-11T19:30:56;42.73;;;24.90;;
28958;SDS011;16066;0.000;0.000;2024-01-11T19:33:21;42.50;;;25.60;;
28958;SDS011;16066;0.000;0.000;2024-01-11T19:35:47;45.43;;;25.37;;
28958;SDS011;16066;0.000;0.000;2024-01-11T19:38:12;50.27;;;24.33;;
28958;SDS011;16066;0.000;0.000;2024-01-11T19:40:38;42.27;;;25.63;;
28958;SDS011;16066;0.000;0.000;2024-01-11T19:43:05;45.20;;;25.97;;
28958;SDS011;16066;0.000;0.000;2024-01-11T19:45:31;45.00;;;25.30;;
28958;SDS011;16066;0.000;0.000;2024-01-11T19:47:56;41.93;;;24.00;;
28958;SDS011;16066;0.000;0.000;2024-01-11T19:50:22;40.07;;;24.10;;
28958;SDS011;16066;0.000;0.000;2024-01-11T19:52:48;40.83;;;25.13;;
28958;SDS011;16066;0.000;0.000;2024-01-11T19:55:13;39.50;;;24.73;;
28958;SDS011;16066;0.000;0.000;2024-01-11T19:57:39;45.80;;;25.10;;
28958;SDS011;16066;0.000;0.000;2024-01-11T20:00:04;38.03;;;23.53;;
28958;SDS011;16066;0.000;0.000;2024-01-11T20:02:32;37.00;;;24.23;;
28958;SDS011;16066;0.000;0.000;2024-01-11T20:04:57;40.10;;;24.00;;
28958;SDS011;16066;0.000;0.000;2024-01-11T20:07:23;42.50;;;23.23;;
28958;SDS011;16066;0.000;0.000;2024-01-11T20:09:49;35.70;;;21.23;;
28958;SDS011;16066;0.000;0.000;2024-01-11T20:12:14;38.83;;;22.67;;
28958;SDS011;16066;0.000;0.000;2024-01-11T20:14:40;38.17;;;23.73;;
28958;SDS011;16066;0.000;0.000;2024-01-11T20:17:09;32.77;;;22.50;;
28958;SDS011;16066;0.000;0.000;2024-01-11T20:19:34;34.47;;;20.77;;
28958;SDS011;16066;0.000;0.000;2024-01-11T20:22:00;34.53;;;22.50;;
28958;SDS011;16066;0.000;0.000;2024-01-11T20:24:26;35.57;;;22.30;;
28958;SDS011;16066;0.000;0.000;2024-01-11T20:26:53;34.93;;;21.33;;
28958;SDS011;16066;0.000;0.000;2024-01-11T20:29:18;32.83;;;19.87;;
28958;SDS011;16066;0.000;0.000;2024-01-11T20:31:44;30.87;;;20.93;;